Aérodrome :
LOGIN :

S'inscrire | Disclaimer

   EN    FR    IT 

 










Légende :    VFR   VFR Marginal   IFR   IFR Intensif   IFR Très Intensif
Visi : 
Plafond : 
>= 8 km
>= 3000ft
5 à 8 km
1000 à 3000 ft
1500m à 5 km
500 à 1000 ft
800 à 1500m
200 à 500 ft
< 800m
< 200 ft
Symboles :   Orages  Brouillard  Fortes neiges  Fortes précipitations  Vent > 20 kt
SIGMETs :   Divers  Orages  Givrage  Turbulence  Onde Orograph.  Cendres Volcan.







- Altitude de l'aérodrome : 1504 ft
- Code IATA : PNA


LEPP - Noain Pamplona

DERNIER METAR :
  • 191700Z VRB02KT CAVOK 13/04 Q1019

METARs EXPIRÉS :
  • 191630Z VRB01KT CAVOK 13/05 Q1019
  • 191600Z 22002KT CAVOK 14/04 Q1019
  • 191530Z 23003KT CAVOK 14/04 Q1019
  • 191500Z 31003KT 240V360 CAVOK 14/04 Q1019
  • 191430Z 23003KT CAVOK 13/04 Q1020

TAF TAF LEPP
Valide du 19 à 15h jusqu'au 20 à 15h UTC


191400Z 1915/2015 VRB04KT 9999 SCT030 TX15/1915Z TNM01/2006Z
Pas de NOTAMs connus pour ce terrain.
1 SIGMET publié pour la FIR Madrid (LECM) :
 
Turbulence forte
LECM SIGMET 4 VALID 191600/192000 LEVA
LECM MADRID FIR/UIR SEV TURB FCST WI N4315 W00130 - N3827 W00347 - N3828 W00525 - N4406 W00326 - N4315 W00130 FL150/300 STNR NC=



MET'MAP, la Météo Aéronautique d'un coup d'oeil ! - Copyright ORBIFLY Décembre 2007 - Disclaimer

ORBIFLY MET'MAP TEAM :

Programmation & Développement : Alexandra Zaïnal
Conception & Développement : Baudouin d'Aumeries
Co-Programmation & Développement : Marc-Olivier Méhu
Soutien technique & logistique : Manuel Goepfert

Contact : metmap@orbifly.com




SOURCES & CREDITS :

   NOAA